createdAt,value
2019-05-29T00:02:33.479Z,1.50
2019-05-29T00:05:08.259Z,1.50
2019-05-29T00:07:41.776Z,1.65
2019-05-29T00:10:16.075Z,1.47
2019-05-29T00:12:49.559Z,1.37
2019-05-29T00:15:23.036Z,1.20
2019-05-29T00:17:56.598Z,1.60
2019-05-29T00:20:30.133Z,1.55
2019-05-29T00:23:03.690Z,1.20
2019-05-29T00:25:37.182Z,1.30
2019-05-29T00:28:10.684Z,1.75
2019-05-29T00:30:44.156Z,1.62
2019-05-29T00:33:18.351Z,1.55
2019-05-29T00:35:51.976Z,1.50
2019-05-29T00:38:25.471Z,1.70
2019-05-29T00:40:59.028Z,1.52
2019-05-29T00:43:32.603Z,1.62
2019-05-29T00:46:07.240Z,1.70
2019-05-29T00:48:40.831Z,1.80
2019-05-29T00:51:15.103Z,1.75
2019-05-29T00:53:48.713Z,1.90
2019-05-29T00:56:22.176Z,2.02
2019-05-29T00:58:55.676Z,2.05
2019-05-29T01:01:29.280Z,1.90
2019-05-29T01:04:02.883Z,2.10
2019-05-29T01:06:36.338Z,1.83
2019-05-29T01:09:10.349Z,1.92
2019-05-29T01:11:44.112Z,1.80
2019-05-29T01:14:17.663Z,1.93
2019-05-29T01:16:51.261Z,1.90
2019-05-29T01:19:25.182Z,2.12
2019-05-29T01:21:58.719Z,1.70
2019-05-29T01:24:32.296Z,1.80
2019-05-29T01:27:05.826Z,2.15
2019-05-29T01:29:39.464Z,1.98
2019-05-29T01:32:13.470Z,2.03
2019-05-29T01:34:47.046Z,2.45
2019-05-29T01:37:20.469Z,2.07
2019-05-29T01:39:53.960Z,2.37
2019-05-29T01:42:27.775Z,2.70
2019-05-29T01:45:07.947Z,2.10
2019-05-29T01:47:36.629Z,1.90
2019-05-29T01:50:10.336Z,2.63
2019-05-29T01:52:43.821Z,1.80
2019-05-29T01:55:17.879Z,2.03
2019-05-29T01:57:51.512Z,1.90
2019-05-29T02:00:25.383Z,1.87
2019-05-29T02:02:58.960Z,1.83
2019-05-29T02:05:32.559Z,1.85
2019-05-29T02:08:06.099Z,1.97
2019-05-29T02:10:39.620Z,2.10
2019-05-29T02:13:13.093Z,1.90
2019-05-29T02:15:46.651Z,2.20
2019-05-29T02:18:20.776Z,2.13
2019-05-29T02:20:54.320Z,2.00
2019-05-29T02:23:28.285Z,2.27
2019-05-29T02:26:01.896Z,1.97
2019-05-29T02:28:35.357Z,1.80
2019-05-29T02:31:08.974Z,2.17
2019-05-29T02:33:42.438Z,2.03
2019-05-29T02:36:15.920Z,2.33
2019-05-29T02:38:49.400Z,2.17
2019-05-29T02:41:24.141Z,2.27
2019-05-29T02:43:58.141Z,1.97
2019-05-29T02:46:31.665Z,1.70
2019-05-29T02:49:05.345Z,2.60
2019-05-29T02:51:38.917Z,2.33
2019-05-29T02:54:12.522Z,2.10
2019-05-29T02:56:46.017Z,2.50
2019-05-29T02:59:20.893Z,2.30
2019-05-29T03:01:54.711Z,2.60
2019-05-29T03:04:29.862Z,2.23
2019-05-29T03:07:03.521Z,2.30
2019-05-29T03:09:37.423Z,1.90
2019-05-29T03:12:11.003Z,2.00
2019-05-29T03:14:44.533Z,2.40
2019-05-29T03:17:18.013Z,3.87
2019-05-29T03:19:51.477Z,2.57
2019-05-29T03:22:26.282Z,2.50
2019-05-29T03:24:59.955Z,2.13
2019-05-29T03:27:33.951Z,2.20
2019-05-29T03:30:08.353Z,2.02
2019-05-29T03:32:47.745Z,2.30
2019-05-29T03:35:16.981Z,2.12
2019-05-29T03:37:50.500Z,2.50
2019-05-29T03:40:24.031Z,2.40
2019-05-29T03:42:57.529Z,2.30
2019-05-29T03:45:31.742Z,3.20
2019-05-29T03:48:06.368Z,2.40
2019-05-29T03:50:39.901Z,2.63
2019-05-29T03:53:13.399Z,2.10
2019-05-29T03:55:46.873Z,2.40
2019-05-29T03:58:20.361Z,2.37
2019-05-29T04:00:54.188Z,2.23
2019-05-29T04:03:28.982Z,2.45
2019-05-29T04:06:02.616Z,2.60
2019-05-29T04:08:38.249Z,2.35
2019-05-29T04:11:11.445Z,2.20
2019-05-29T04:13:45.015Z,2.05
2019-05-29T04:16:21.524Z,2.20
2019-05-29T04:18:57.447Z,2.72
2019-05-29T04:21:34.068Z,2.17
2019-05-29T04:24:07.946Z,2.35
2019-05-29T04:26:41.558Z,2.20
2019-05-29T04:29:15.799Z,2.50
2019-05-29T04:31:49.266Z,2.52
2019-05-29T04:34:22.914Z,2.75
2019-05-29T04:36:56.386Z,2.52
2019-05-29T04:39:30.606Z,2.45
2019-05-29T04:42:04.410Z,2.60
2019-05-29T04:44:39.109Z,2.27
2019-05-29T04:47:13.114Z,2.15
2019-05-29T04:49:46.638Z,2.50
2019-05-29T04:52:20.219Z,2.80
2019-05-29T04:54:53.779Z,2.52
2019-05-29T04:57:27.262Z,2.45
2019-05-29T05:00:00.748Z,2.60
2019-05-29T05:02:35.064Z,2.85
2019-05-29T05:05:09.007Z,2.33
2019-05-29T05:07:42.478Z,2.67
2019-05-29T05:10:27.722Z,2.37
2019-05-29T05:13:01.336Z,2.62
2019-05-29T05:15:36.031Z,2.75
2019-05-29T05:18:09.889Z,2.35
2019-05-29T05:20:43.443Z,2.67
2019-05-29T05:23:16.970Z,2.90
2019-05-29T05:25:50.607Z,2.00
2019-05-29T05:28:24.158Z,2.67
2019-05-29T05:30:57.751Z,3.25
2019-05-29T05:33:32.366Z,2.58
2019-05-29T05:36:06.028Z,2.47
2019-05-29T05:38:39.570Z,2.08
2019-05-29T05:41:13.164Z,1.65
2019-05-29T05:43:46.627Z,1.60
2019-05-29T05:46:20.148Z,1.62
2019-05-29T05:48:53.697Z,1.60
2019-05-29T05:51:27.205Z,1.75
2019-05-29T05:54:00.686Z,2.10
2019-05-29T05:56:35.528Z,1.60
2019-05-29T05:59:09.189Z,1.67
2019-05-29T06:01:42.709Z,1.27
2019-05-29T06:04:16.254Z,1.20
2019-05-29T06:06:49.833Z,1.20
2019-05-29T06:09:23.390Z,1.10
2019-05-29T06:11:56.867Z,1.00
2019-05-29T06:14:30.419Z,1.35
2019-05-29T06:17:04.007Z,1.15
2019-05-29T06:19:38.908Z,1.30
2019-05-29T06:22:12.575Z,1.50
2019-05-29T06:24:46.211Z,0.93
2019-05-29T06:27:19.903Z,1.20
2019-05-29T06:29:53.451Z,1.77
2019-05-29T06:32:26.939Z,1.77
2019-05-29T06:35:00.571Z,1.57
2019-05-29T06:37:35.491Z,1.20
2019-05-29T06:40:09.722Z,1.70
2019-05-29T06:42:43.920Z,1.65
2019-05-29T06:45:20.579Z,1.30
2019-05-29T06:47:54.161Z,1.10
2019-05-29T06:50:27.624Z,1.65
2019-05-29T06:53:01.254Z,1.22
2019-05-29T06:55:35.772Z,1.35
2019-05-29T06:58:09.499Z,1.30
2019-05-29T07:00:43.226Z,1.65
2019-05-29T07:03:16.769Z,1.20
2019-05-29T07:05:52.474Z,1.35
2019-05-29T07:08:38.114Z,1.50
2019-05-29T07:11:00.870Z,1.47
2019-05-29T07:13:35.408Z,1.72
2019-05-29T07:16:09.710Z,1.75
2019-05-29T07:19:21.579Z,1.42
2019-05-29T07:21:18.613Z,1.65
2019-05-29T07:23:52.198Z,1.67
2019-05-29T07:26:25.783Z,2.17
2019-05-29T07:29:08.106Z,1.50
2019-05-29T07:31:34.674Z,1.70
2019-05-29T07:34:08.237Z,1.60
2019-05-29T07:36:41.987Z,1.50
2019-05-29T07:39:15.781Z,1.80
2019-05-29T07:41:49.237Z,1.60
2019-05-29T07:44:22.882Z,2.00
2019-05-29T07:46:56.424Z,1.80
2019-05-29T07:49:39.043Z,1.92
2019-05-29T07:52:05.382Z,1.50
2019-05-29T07:54:39.998Z,1.65
2019-05-29T07:57:13.871Z,1.82
2019-05-29T07:59:47.419Z,1.60
2019-05-29T08:02:20.908Z,1.62
2019-05-29T08:04:54.407Z,1.65
2019-05-29T08:07:27.947Z,1.85
2019-05-29T08:10:01.599Z,1.52
2019-05-29T08:12:35.055Z,1.60
2019-05-29T08:15:09.083Z,2.15
2019-05-29T08:17:43.949Z,1.70
2019-05-29T08:20:17.913Z,1.70
2019-05-29T08:22:51.687Z,1.42
2019-05-29T08:25:25.213Z,1.52
2019-05-29T08:27:58.674Z,1.47
2019-05-29T08:30:32.313Z,1.65
2019-05-29T08:33:05.915Z,1.47
2019-05-29T08:35:41.384Z,1.90
2019-05-29T08:38:14.663Z,1.57
2019-05-29T08:40:49.419Z,1.70
2019-05-29T08:43:23.173Z,1.52
2019-05-29T08:45:56.738Z,1.35
2019-05-29T08:48:30.226Z,1.52
2019-05-29T08:51:03.766Z,1.30
2019-05-29T08:53:37.309Z,1.47
2019-05-29T08:56:10.894Z,1.52
2019-05-29T08:58:44.474Z,1.32
2019-05-29T09:01:18.061Z,1.10
2019-05-29T09:03:53.175Z,1.40
2019-05-29T09:06:27.009Z,1.37
2019-05-29T12:47:58.174Z,1.10
2019-05-29T12:50:34.644Z,1.50
2019-05-29T12:53:07.604Z,1.55
2019-05-29T12:55:41.166Z,1.30
2019-05-29T12:58:14.718Z,1.12
2019-05-29T13:00:48.273Z,0.90
2019-05-29T13:03:19.556Z,1.00
2019-05-29T13:05:50.591Z,0.95
2019-05-29T13:08:21.808Z,1.40
2019-05-29T13:13:23.730Z,1.00
2019-05-29T13:15:54.871Z,1.20
2019-05-29T13:18:26.226Z,1.22
2019-05-29T13:20:57.256Z,1.10
2019-05-29T13:23:28.299Z,1.40
2019-05-29T13:25:59.457Z,1.30
2019-05-29T13:28:30.791Z,1.12
2019-05-29T13:31:02.049Z,1.20
2019-05-29T13:36:04.471Z,1.12
2019-05-29T13:38:35.746Z,1.62
2019-05-29T13:43:37.832Z,1.60
2019-05-29T13:46:09.034Z,1.15
2019-05-29T13:48:40.042Z,1.40
2019-05-29T13:51:11.082Z,1.45
2019-05-29T13:53:42.089Z,1.67
2019-05-29T13:56:13.127Z,1.40
2019-05-29T13:58:44.010Z,1.37
2019-05-29T14:01:14.944Z,1.20
2019-05-29T14:03:50.385Z,1.00
2019-05-29T14:06:19.026Z,1.20
2019-05-29T14:11:20.804Z,0.65
2019-05-29T14:13:51.765Z,1.35
2019-05-29T14:16:22.754Z,0.90
2019-05-29T14:18:53.685Z,1.37
2019-05-29T14:21:24.723Z,1.20
2019-05-29T14:23:55.757Z,1.30
2019-05-29T14:26:26.690Z,1.50
2019-05-29T14:28:57.802Z,1.15
2019-05-29T14:31:28.853Z,1.85
2019-05-29T14:34:00.936Z,1.00
2019-05-29T14:36:32.098Z,1.30
2019-05-29T14:39:05.764Z,1.12
2019-05-29T14:41:36.946Z,1.10
2019-05-29T14:44:08.046Z,0.93
2019-05-29T14:46:39.053Z,1.15
2019-05-29T14:51:42.665Z,1.07
2019-05-29T14:54:13.599Z,1.00
2019-05-29T14:56:44.791Z,1.00
2019-05-29T14:59:15.918Z,1.00
2019-05-29T15:01:51.038Z,1.07
2019-05-29T15:04:19.819Z,1.02
2019-05-29T15:06:50.947Z,1.40
2019-05-29T15:11:54.934Z,1.00
2019-05-29T15:14:25.950Z,1.40
2019-05-29T15:16:56.918Z,1.27
2019-05-29T15:19:27.993Z,1.45
2019-05-29T15:21:58.993Z,1.20
2019-05-29T15:24:31.506Z,1.50
2019-05-29T15:27:04.137Z,1.70
2019-05-29T15:29:35.146Z,1.17
2019-05-29T15:32:06.343Z,1.40
2019-05-29T15:34:37.474Z,1.10
2019-05-29T15:37:12.182Z,1.00
2019-05-29T15:39:41.906Z,0.93
2019-05-29T15:42:12.972Z,1.02
2019-05-29T15:44:44.128Z,1.22
2019-05-29T15:47:15.310Z,1.30
2019-05-29T15:52:17.508Z,1.20
2019-05-29T15:54:48.594Z,1.20
2019-05-29T15:57:19.611Z,1.00
2019-05-29T15:59:50.720Z,1.32
2019-05-29T16:02:21.883Z,1.37
2019-05-29T16:07:25.115Z,0.85
2019-05-29T16:09:56.051Z,1.20
2019-05-29T16:12:30.727Z,1.22
2019-05-29T16:15:00.126Z,0.90
2019-05-29T16:20:06.621Z,1.37
2019-05-29T16:22:37.793Z,0.90
2019-05-29T16:27:40.130Z,1.00
2019-05-29T16:30:11.743Z,1.30
2019-05-29T16:32:42.781Z,1.05
2019-05-29T16:35:15.113Z,1.17
2019-05-29T16:37:46.019Z,1.22
2019-05-29T16:40:18.248Z,1.40
2019-05-29T16:42:49.608Z,1.10
2019-05-29T16:47:53.776Z,1.10
2019-05-29T16:50:24.898Z,1.22
2019-05-29T16:55:26.675Z,1.02
2019-05-29T16:57:57.606Z,1.40
2019-05-29T17:00:28.723Z,1.25
2019-05-29T17:02:59.757Z,1.20
2019-05-29T17:05:31.194Z,2.00
2019-05-29T17:08:02.199Z,1.00
2019-05-29T17:10:35.120Z,0.90
2019-05-29T17:13:06.758Z,0.90
2019-05-29T17:15:37.873Z,1.10
2019-05-29T17:20:45.028Z,1.30
2019-05-29T17:23:17.068Z,1.00
2019-05-29T17:25:48.259Z,0.90
2019-05-29T17:28:23.310Z,1.00
2019-05-29T17:30:52.215Z,1.10
2019-05-29T17:33:23.351Z,1.00
2019-05-29T17:38:26.046Z,1.10
2019-05-29T17:40:57.168Z,1.05
2019-05-29T17:43:30.110Z,1.20
2019-05-29T17:46:01.207Z,1.20
2019-05-29T17:51:03.300Z,1.00
2019-05-29T17:53:34.233Z,0.93
2019-05-29T17:56:05.327Z,0.80
2019-05-29T17:58:36.375Z,1.15
2019-05-29T18:01:07.523Z,0.93
2019-05-29T18:03:38.515Z,0.95
2019-05-29T18:06:09.522Z,0.80
2019-05-29T18:08:40.558Z,1.20
2019-05-29T18:11:13.785Z,0.82
2019-05-29T18:13:44.719Z,1.00
2019-05-29T18:16:15.756Z,0.90
2019-05-29T18:18:46.793Z,0.90
2019-05-29T18:21:17.789Z,0.82
2019-05-29T18:23:48.818Z,1.00
2019-05-29T18:26:20.042Z,1.17
2019-05-29T18:31:22.539Z,1.07
2019-05-29T18:33:53.639Z,1.05
2019-05-29T18:36:25.318Z,1.07
2019-05-29T18:38:56.491Z,0.80
2019-05-29T18:41:28.509Z,1.07
2019-05-29T18:43:59.686Z,1.00
2019-05-29T18:46:30.784Z,0.85
2019-05-29T18:49:01.804Z,1.10
2019-05-29T18:51:32.916Z,0.90
2019-05-29T18:54:04.044Z,1.02
2019-05-29T18:56:34.977Z,1.10
2019-05-29T18:59:06.020Z,1.40
2019-05-29T19:01:37.048Z,1.70
2019-05-29T19:04:08.179Z,1.30
2019-05-29T19:06:40.997Z,1.10
2019-05-29T19:09:12.055Z,1.70
2019-05-29T19:11:43.168Z,1.75
2019-05-29T19:14:16.007Z,1.30
2019-05-29T19:16:46.908Z,1.07
2019-05-29T19:19:17.932Z,1.50
2019-05-29T19:21:48.874Z,0.85
2019-05-29T19:24:19.996Z,1.00
2019-05-29T19:26:50.916Z,1.05
2019-05-29T19:29:22.957Z,1.40
2019-05-29T19:31:54.442Z,1.60
2019-05-29T19:36:56.365Z,1.57
2019-05-29T19:39:28.023Z,1.20
2019-05-29T19:41:59.260Z,1.25
2019-05-29T19:44:32.550Z,1.12
2019-05-29T19:47:05.505Z,1.47
2019-05-29T19:49:36.529Z,2.10
2019-05-29T19:52:07.457Z,2.10
2019-05-29T19:54:38.487Z,1.75
2019-05-29T19:57:09.514Z,4.30
2019-05-29T19:59:40.521Z,3.95
2019-05-29T20:02:11.569Z,3.52
2019-05-29T20:04:42.688Z,4.37
2019-05-29T20:07:14.190Z,2.35
2019-05-29T20:09:48.408Z,2.40
2019-05-29T20:12:20.715Z,2.27
2019-05-29T20:17:24.300Z,3.98
2019-05-29T20:19:55.235Z,3.20
2019-05-29T20:22:26.261Z,2.33
2019-05-29T20:24:57.764Z,1.60
2019-05-29T20:27:29.993Z,2.00
2019-05-29T20:30:01.309Z,1.98
2019-05-29T20:32:32.563Z,1.80
2019-05-29T20:35:04.478Z,1.72
2019-05-29T20:37:36.271Z,1.77
2019-05-29T20:40:08.521Z,2.10
2019-05-29T20:42:39.649Z,1.95
2019-05-29T20:45:10.963Z,2.02
2019-05-29T20:50:13.886Z,2.00
2019-05-29T20:52:44.890Z,1.98
2019-05-29T20:55:16.298Z,2.10
2019-05-29T20:57:47.232Z,2.12
2019-05-29T21:00:18.859Z,2.40
2019-05-29T21:02:49.788Z,1.82
2019-05-29T21:05:20.773Z,2.02
2019-05-29T21:07:51.667Z,2.00
2019-05-29T21:10:22.785Z,2.02
2019-05-29T21:12:53.905Z,2.02
2019-05-29T21:15:27.189Z,2.00
2019-05-29T21:17:58.230Z,2.33
2019-05-29T21:20:29.314Z,2.33
2019-05-29T21:23:00.466Z,1.85
2019-05-29T21:25:31.600Z,2.58
2019-05-29T21:28:02.817Z,2.30
2019-05-29T21:30:35.440Z,2.08
2019-05-29T21:33:06.881Z,2.58
2019-05-29T21:35:38.056Z,2.65
2019-05-29T21:38:12.217Z,2.10
2019-05-29T21:40:52.624Z,1.70
2019-05-29T21:43:26.725Z,2.08
2019-05-29T21:45:57.847Z,2.08
2019-05-29T21:48:31.532Z,1.92
2019-05-29T21:51:05.116Z,2.10
2019-05-29T21:53:41.761Z,2.40
2019-05-29T21:56:19.942Z,2.65
2019-05-29T21:59:03.134Z,3.87
2019-05-29T22:01:24.715Z,2.10
2019-05-29T22:03:58.393Z,2.65
2019-05-29T22:06:29.319Z,2.47
2019-05-29T22:09:00.612Z,2.50
2019-05-29T22:11:31.908Z,2.00
2019-05-29T22:16:42.590Z,2.17
2019-05-29T22:19:13.612Z,2.00
2019-05-29T22:21:44.658Z,2.30
2019-05-29T22:24:22.949Z,3.05
2019-05-29T22:26:55.185Z,2.77
2019-05-29T22:29:26.441Z,2.37
2019-05-29T22:31:57.768Z,2.37
2019-05-29T22:36:59.805Z,2.12
2019-05-29T22:39:30.912Z,1.92
2019-05-29T22:42:02.248Z,2.08
2019-05-29T22:47:05.514Z,2.25
2019-05-29T22:49:36.868Z,1.75
2019-05-29T22:54:40.561Z,2.00
2019-05-29T22:57:11.827Z,1.50
2019-05-29T22:59:44.107Z,1.92
2019-05-29T23:02:17.373Z,2.00
2019-05-29T23:04:48.411Z,2.00
2019-05-29T23:07:19.581Z,2.70
2019-05-29T23:09:52.017Z,2.20
2019-05-29T23:12:25.098Z,2.12
2019-05-29T23:15:00.650Z,1.92
2019-05-29T23:17:31.928Z,2.12
2019-05-29T23:20:07.654Z,2.45
2019-05-29T23:22:40.936Z,2.00
2019-05-29T23:25:12.034Z,2.40
2019-05-29T23:27:46.438Z,2.10
2019-05-29T23:30:17.814Z,2.42
2019-05-29T23:35:22.578Z,1.52
2019-05-29T23:37:57.001Z,2.50
2019-05-29T23:40:28.348Z,2.08
2019-05-29T23:42:59.509Z,2.47
2019-05-29T23:45:30.592Z,2.17
2019-05-29T23:48:01.843Z,2.37
2019-05-29T23:50:33.065Z,1.95
2019-05-29T23:53:04.139Z,2.40
2019-05-29T23:55:35.167Z,2.60
2019-05-29T23:58:08.149Z,2.62
